SEASEATTLE-TACOMA INTL
METARs for airports near SEA, sorted by distance:
N 0 nm 432' KSEA 152253Z 35014KT 10SM CLR 24/00 A3008
NE 4 nm 32' KRNT 152253Z 33013KT 10SM CLR 22/02 A3006
N 4 nm 21' KBFI 152253Z 31008KT 10SM CLR 22/01 A3007
SW 15 nm 294' KTIW 152253Z 03011KT 10SM CLR 22/M01 A3007
W 18 nm 444' KPWT 152256Z 04011KT 10SM CLR 23/01 A3009
S 19 nm 322' KTCM 152258Z 36013KT 10SM CLR 23/01 A3007
S 20 nm 537' KPLU 152335Z VRB06G14KT 10SM CLR 23/M01 A3007
SW 24 nm 301' KGRF 152258Z 32010KT 10SM CLR 24/M01 A3006
N 27 nm 607' KPAE 152253Z 35008KT 10SM CLR 20/04 A3011
W 36 nm 272' KSHN 152253Z VRB06KT 10SM CLR 24/01 A3005
SW 37 nm 207' KOLM 152254Z 02007KT 10SM CLR 24/M01 A3007
N 43 nm 141' KAWO 152256Z 31011KT 10SM CLR 22/07 A3010
SW 53 nm 177' KCLS 152335Z 33004KT 10SM CLR 23/01 A3006
N 55 nm 47' KNUW 152256Z 28005KT 10SM CLR 14/05 A3015
NW 60 nm 13' KNOW 152335Z 15004KT 10SM CLR 15/03 A3012
N 61 nm 145' KBVS 152335Z 30013KT 9SM CLR 20/04 A3010
NW 62 nm 291' KCLM 152253Z VRB05KT 10SM CLR 19/M02 A3013
NW 70 nm 112' KFHR 152253Z 12003KT 10SM CLR 19/04 A3013
SW 72 nm 17' KHQM 152253Z 29011KT 10SM CLR 21/05 A3006
E 76 nm 1763' KELN 152253Z 06014KT 10SM CLR 23/M06 A3010
N 79 nm 34' KORS 152335Z 31005KT 10SM CLR 15/04 A3011
N 81 nm 171' KBLI 152253Z 30005KT 10SM CLR 20/02 A3011
S 83 nm 20' KKLS 152256Z 30005G17KT 10SM CLR 25/02 A3004
NW 84 nm 64' CYYJ 152300Z 09005KT 050V150 30SM SKC 20/03 A3011
E 85 nm 1248' KEAT 152255Z 17006KT 10SM CLR 22/M04 A3008
SE 89 nm 1098' KYKM 152253Z 05013G20KT 10SM CLR 23/M03 A3008
W 95 nm 193' KUIL 152253Z VRB05KT 10SM CLR 21/M02 A3010
TAFs for airports near SEA, sorted by distance:
N 0 nm 432' KSEA KSEA 152321Z 1600/1706 35011KT P6SM SKC
  FM160600 02005KT P6SM SKC
  FM161900 35009KT P6SM SKC
N 4 nm 21' KBFI KBFI 152321Z 1600/1624 32007KT P6SM SKC
  FM160600 00000KT P6SM SKC
  FM161800 31008KT P6SM SKC
W 18 nm 444' KPWT TAF KPWT 152321Z 1600/1624 05011KT P6SM SKC
  FM160600 05003KT P6SM SKC
  FM161800 03009KT P6SM SKC
S 19 nm 322' KTCM TAF KTCM 152105Z 1521/1703 35012KT 9999 SKC QNH3008INS
  BECMG 1603/1604 VRB04KT 9999 SKC QNH3010INS
  BECMG 1620/1621 05009KT 9999 SKC QNH3020INS TX24/1600Z TN05/1614Z
SW 24 nm 301' KGRF TAF KGRF 152057Z 1521/1703 33010G15KT 9999 SKC QNH3006INS
  BECMG 1603/1604 02008KT 9999 SKC QNH3010INS
  BECMG 1618/1619 35010G15KT 9999 SKC QNH3010INS TX23/1600Z TN08/1614Z
N 27 nm 607' KPAE KPAE 152321Z 1600/1624 35008KT P6SM SKC
  FM160600 VRB03KT P6SM SKC
  FM161800 33007KT P6SM SKC
SW 37 nm 207' KOLM KOLM 152321Z 1600/1624 03006KT P6SM SKC
  FM160600 00000KT P6SM SKC
  FM161600 03008KT P6SM SKC
N 55 nm 47' KNUW TAF TAF KNUW 1523/1623 VRB06KT 9999 SKC QNH3012INS
  TEMPO 1610/1615 11006KT 9999 BCFG FEW001
  FM161900 29007KT 9999 FEW250 QNH3022INS T16/1523Z T04/1613Z FS30046
NW 62 nm 291' KCLM KCLM 152321Z 1600/1624 VRB04KT P6SM SKC
  FM160300 26004KT P6SM SKC
  FM161700 07005KT P6SM SKC
SW 72 nm 17' KHQM KHQM 152321Z 1600/1624 27007KT P6SM SKC
  FM160700 VRB04KT P6SM SKC
  FM161700 08007KT P6SM SKC
  FM162100 27007KT P6SM SKC
N 81 nm 171' KBLI KBLI 152321Z 1600/1624 29007KT P6SM SKC
  FM160400 17004KT P6SM SKC
  FM161800 27007KT P6SM SKC
E 85 nm 1248' KEAT TAF KEAT 152332Z 1600/1624 12006KT P6SM SKC
  FM160300 VRB03KT P6SM SKC
  FM162000 13005KT P6SM SKC
SE 89 nm 1098' KYKM TAF KYKM 152320Z 1600/1624 04010G20KT P6SM SKC
  FM160400 28008KT P6SM SKC
  FM161600 04010G19KT P6SM SKC

Shortcut to this page: http://wxbay.com.

Data may contain errors.